Time;durP1;ratioP1;P1;durP2;ratioP2;P2;SDS_P1;SDS_P2;PMS_P1;PMS_P2;Temp;Humidity;BMP_temperature;BMP_pressure;BME280_temperature;BME280_humidity;BME280_pressure;Samples;Min_cycle;Max_cycle;Signal;HPM_P1;HPM_P2
2021/12/11 00:01:45;;;;;;;1.17;0.93;;;4.50;99.90;;;;;;7393657;19;20132;-52
2021/12/11 00:04:17;;;;;;;2.13;1.00;;;4.40;99.90;;;;;;7405335;19;20333;-52
2021/12/11 00:06:53;;;;;;;2.85;1.00;;;4.40;99.90;;;;;;7406655;19;20123;-52
2021/12/11 00:09:28;;;;;;;0.80;0.80;;;4.30;99.90;;;;;;7403255;19;20143;-52
2021/12/11 00:12:07;;;;;;;1.00;1.00;;;4.30;99.90;;;;;;7405271;19;20454;-52
2021/12/11 00:14:40;;;;;;;3.50;0.82;;;4.30;99.90;;;;;;7406857;19;20293;-52
2021/12/11 00:17:13;;;;;;;1.40;1.15;;;4.30;99.90;;;;;;7402601;19;20310;-52
2021/12/11 00:19:40;;;;;;;0.80;0.80;;;4.40;99.90;;;;;;7402557;19;20142;-52
2021/12/11 00:22:13;;;;;;;1.08;0.88;;;4.40;99.90;;;;;;7399608;19;20446;-52
2021/12/11 00:24:43;;;;;;;1.45;0.80;;;4.40;99.90;;;;;;7402361;19;20339;-52
2021/12/11 00:27:14;;;;;;;0.85;0.85;;;4.40;99.90;;;;;;7405440;19;20131;-52
2021/12/11 00:29:43;;;;;;;0.68;0.60;;;4.40;99.90;;;;;;7398319;19;20124;-49
2021/12/11 00:32:21;;;;;;;1.38;1.20;;;4.50;99.90;;;;;;7378466;19;20136;-50
2021/12/11 00:34:52;;;;;;;0.80;0.80;;;4.60;99.90;;;;;;7399008;19;20116;-50
2021/12/11 00:37:23;;;;;;;0.60;0.60;;;4.70;99.90;;;;;;7406673;19;20148;-49
2021/12/11 00:39:58;;;;;;;2.05;0.70;;;4.70;99.90;;;;;;7405765;19;20135;-50
2021/12/11 00:42:33;;;;;;;0.90;0.90;;;4.80;99.90;;;;;;7404090;19;20244;-50
2021/12/11 00:45:17;;;;;;;1.70;1.40;;;4.90;99.90;;;;;;7402161;19;20123;-49
2021/12/11 00:47:56;;;;;;;1.02;0.98;;;4.90;99.90;;;;;;7406046;19;20208;-50
2021/12/11 00:50:48;;;;;;;1.20;1.10;;;5.00;99.90;;;;;;7402568;19;20136;-49
2021/12/11 00:53:18;;;;;;;0.88;0.88;;;5.10;99.90;;;;;;7403614;19;20125;-49
2021/12/11 00:55:51;;;;;;;1.25;0.93;;;5.10;99.90;;;;;;7404245;19;20132;-50
2021/12/11 00:58:27;;;;;;;0.95;0.95;;;5.20;99.90;;;;;;7398140;19;20132;-50
2021/12/11 01:01:10;;;;;;;1.10;1.00;;;5.20;99.90;;;;;;7403947;19;20216;-52
2021/12/11 01:03:55;;;;;;;3.10;0.88;;;5.20;99.90;;;;;;7402394;19;20588;-52
2021/12/11 01:06:29;;;;;;;1.40;1.27;;;5.20;99.90;;;;;;7400743;19;20127;-50
2021/12/11 01:09:14;;;;;;;1.35;1.20;;;5.30;99.90;;;;;;7397659;19;20139;-51
2021/12/11 01:11:50;;;;;;;1.10;1.00;;;5.40;99.90;;;;;;7390814;19;20123;-51
2021/12/11 01:14:30;;;;;;;0.90;0.90;;;5.40;99.90;;;;;;7397777;19;20219;-51
2021/12/11 01:17:21;;;;;;;2.45;1.50;;;5.40;99.90;;;;;;7399548;19;20127;-50
2021/12/11 01:19:55;;;;;;;1.17;1.08;;;5.30;99.90;;;;;;7403983;19;20140;-51
2021/12/11 01:22:35;;;;;;;1.15;1.05;;;5.20;99.90;;;;;;7401633;19;20127;-50
2021/12/11 01:25:19;;;;;;;2.95;1.08;;;5.10;99.90;;;;;;7401108;19;20127;-51
2021/12/11 01:27:56;;;;;;;1.45;0.95;;;5.10;99.90;;;;;;7400353;19;20132;-51
2021/12/11 01:30:30;;;;;;;1.30;1.20;;;5.10;99.90;;;;;;7393726;19;20353;-51
2021/12/11 01:32:58;;;;;;;1.10;1.00;;;5.10;99.90;;;;;;7400173;19;20144;-51
2021/12/11 01:35:25;;;;;;;0.80;0.80;;;5.00;99.90;;;;;;7403992;19;20127;-50
2021/12/11 01:38:05;;;;;;;1.15;0.90;;;5.10;99.90;;;;;;7405961;19;20462;-51
2021/12/11 01:40:37;;;;;;;1.65;1.40;;;5.00;99.90;;;;;;7401887;19;20376;-48
2021/12/11 01:43:10;;;;;;;1.25;1.08;;;4.80;99.90;;;;;;7403440;19;20154;-48
2021/12/11 01:45:43;;;;;;;0.73;0.73;;;4.70;99.90;;;;;;7410758;19;20470;-48
2021/12/11 01:48:20;;;;;;;0.80;0.80;;;4.80;99.90;;;;;;7411225;19;20132;-48
2021/12/11 01:50:59;;;;;;;0.70;0.70;;;4.90;99.90;;;;;;7407726;19;20115;-48
2021/12/11 01:53:33;;;;;;;1.88;1.20;;;4.90;99.90;;;;;;7409692;19;20123;-48
2021/12/11 01:56:14;;;;;;;1.00;1.00;;;4.90;99.90;;;;;;7409016;19;20318;-49
2021/12/11 01:58:57;;;;;;;0.88;0.65;;;5.00;99.90;;;;;;7411691;19;20138;-49
2021/12/11 02:01:46;;;;;;;1.38;0.85;;;5.00;99.90;;;;;;7409896;19;20123;-48
2021/12/11 02:04:19;;;;;;;1.48;0.80;;;5.00;99.90;;;;;;7409743;19;20124;-48
2021/12/11 02:06:49;;;;;;;0.45;0.45;;;5.00;99.90;;;;;;7410465;19;20877;-49
2021/12/11 02:09:22;;;;;;;1.30;0.85;;;5.00;99.90;;;;;;7411489;19;20126;-49
2021/12/11 02:12:12;;;;;;;1.10;0.77;;;5.10;99.90;;;;;;7409594;19;20141;-51
2021/12/11 02:14:46;;;;;;;0.88;0.65;;;5.10;99.90;;;;;;7403661;19;20127;-51
2021/12/11 02:17:28;;;;;;;1.90;0.90;;;5.10;99.90;;;;;;7403421;19;20127;-51
2021/12/11 02:20:04;;;;;;;0.50;0.50;;;5.00;99.90;;;;;;7408566;19;20259;-51
2021/12/11 02:22:43;;;;;;;0.95;0.70;;;5.00;99.90;;;;;;7406508;19;20146;-51
2021/12/11 02:25:23;;;;;;;0.60;0.60;;;4.90;99.90;;;;;;7407858;19;20405;-51
2021/12/11 02:28:09;;;;;;;0.70;0.55;;;4.80;99.90;;;;;;7406178;19;20116;-51
2021/12/11 02:31:05;;;;;;;2.25;0.50;;;4.80;99.90;;;;;;7399164;19;20436;-50
2021/12/11 02:33:38;;;;;;;0.65;0.55;;;4.70;99.90;;;;;;7407543;19;20128;-51
2021/12/11 02:36:10;;;;;;;0.45;0.45;;;4.70;99.90;;;;;;7412270;19;20200;-51
2021/12/11 02:38:49;;;;;;;0.77;0.63;;;4.70;99.90;;;;;;7401241;19;20395;-51
2021/12/11 02:41:32;;;;;;;0.60;0.60;;;4.70;99.90;;;;;;7401765;19;20127;-51
2021/12/11 02:44:24;;;;;;;0.95;0.70;;;4.80;99.90;;;;;;7414092;19;20145;-51
2021/12/11 02:47:23;;;;;;;0.80;0.70;;;4.90;99.90;;;;;;7407074;19;20128;-53
2021/12/11 02:49:57;;;;;;;0.60;0.60;;;4.80;99.90;;;;;;7409220;19;20191;-51
2021/12/11 02:53:04;;;;;;;0.60;0.60;;;4.70;99.90;;;;;;7406680;19;20147;-51
2021/12/11 02:55:39;;;;;;;0.50;0.50;;;4.60;99.90;;;;;;7397060;19;20131;-51
2021/12/11 02:58:22;;;;;;;0.50;0.50;;;4.60;99.90;;;;;;7406811;19;20107;-51
2021/12/11 03:00:57;;;;;;;0.63;0.63;;;4.60;99.90;;;;;;7406088;19;20202;-51
2021/12/11 03:03:33;;;;;;;1.90;0.90;;;4.60;99.90;;;;;;7400556;19;20128;-50
2021/12/11 03:06:13;;;;;;;0.75;0.75;;;4.60;99.90;;;;;;7406267;19;20123;-51
2021/12/11 03:08:43;;;;;;;0.50;0.50;;;4.70;99.90;;;;;;7406091;19;20136;-51
2021/12/11 03:11:14;;;;;;;1.95;0.85;;;4.70;99.90;;;;;;7408547;19;20127;-51
2021/12/11 03:13:50;;;;;;;0.93;0.60;;;4.60;99.90;;;;;;7406798;19;20377;-51
2021/12/11 03:16:24;;;;;;;0.40;0.40;;;4.70;99.90;;;;;;7401264;19;20128;-51
2021/12/11 03:18:59;;;;;;;0.70;0.57;;;4.70;99.90;;;;;;7405832;19;20128;-51
2021/12/11 03:21:26;;;;;;;1.05;0.60;;;4.70;99.90;;;;;;7403917;19;20175;-50
2021/12/11 03:24:00;;;;;;;0.80;0.80;;;4.80;99.90;;;;;;7407062;19;20128;-51
2021/12/11 03:26:26;;;;;;;0.70;0.70;;;4.80;99.90;;;;;;7402395;19;20439;-50
2021/12/11 03:28:53;;;;;;;0.70;0.70;;;4.80;99.90;;;;;;7406986;19;20262;-51
2021/12/11 03:31:20;;;;;;;3.25;0.90;;;4.90;99.90;;;;;;7392049;19;20151;-51
2021/12/11 03:33:56;;;;;;;1.10;0.80;;;4.90;99.90;;;;;;7404960;19;20378;-51
2021/12/11 03:36:27;;;;;;;0.85;0.85;;;4.90;99.90;;;;;;7400685;19;20124;-51
2021/12/11 03:38:57;;;;;;;1.00;1.00;;;4.90;99.90;;;;;;7403437;19;20241;-51
2021/12/11 03:41:25;;;;;;;1.50;1.30;;;4.90;99.90;;;;;;7405289;19;20172;-50
2021/12/11 03:43:54;;;;;;;1.55;1.48;;;4.90;99.90;;;;;;7404882;19;20180;-51
2021/12/11 03:46:24;;;;;;;1.00;1.00;;;4.90;99.90;;;;;;7406116;19;20128;-51
2021/12/11 03:48:54;;;;;;;0.90;0.90;;;4.90;99.90;;;;;;7408002;19;20160;-51
2021/12/11 03:51:25;;;;;;;3.17;1.20;;;4.90;99.90;;;;;;7404560;19;20323;-51
2021/12/11 03:53:52;;;;;;;1.30;1.20;;;4.90;99.90;;;;;;7403090;19;20224;-51
2021/12/11 03:56:18;;;;;;;1.20;1.10;;;5.00;99.90;;;;;;7401807;19;20155;-51
2021/12/11 03:58:50;;;;;;;1.30;1.20;;;5.00;99.90;;;;;;7406338;19;20127;-51
2021/12/11 04:01:26;;;;;;;1.10;1.10;;;5.00;99.90;;;;;;7403809;19;20512;-51
2021/12/11 04:04:07;;;;;;;1.60;1.45;;;5.00;99.90;;;;;;7410048;19;20141;-51
2021/12/11 04:06:34;;;;;;;1.48;1.38;;;5.00;99.90;;;;;;7398834;19;21053;-51
2021/12/11 04:09:05;;;;;;;1.50;1.40;;;4.90;99.90;;;;;;7404684;19;20131;-51
2021/12/11 04:11:33;;;;;;;1.48;1.38;;;4.90;99.90;;;;;;7399317;19;20239;-51
2021/12/11 04:14:09;;;;;;;1.55;1.45;;;4.90;99.90;;;;;;7402643;19;20124;-51
2021/12/11 04:16:39;;;;;;;1.42;1.33;;;4.90;99.90;;;;;;7402952;19;20115;-50
2021/12/11 04:19:07;;;;;;;2.10;1.60;;;5.00;99.90;;;;;;7401835;19;20315;-51
2021/12/11 04:21:34;;;;;;;2.05;1.85;;;4.90;99.90;;;;;;7403519;19;20335;-51
2021/12/11 04:24:06;;;;;;;1.50;1.40;;;4.90;99.90;;;;;;7397753;19;20127;-52
2021/12/11 04:26:33;;;;;;;1.63;1.52;;;4.90;99.90;;;;;;7397309;19;20115;-51
2021/12/11 04:29:02;;;;;;;2.00;1.80;;;4.90;99.90;;;;;;7406277;19;20126;-51
2021/12/11 04:31:42;;;;;;;1.70;1.60;;;4.80;99.90;;;;;;7394531;19;20154;-51
2021/12/11 04:34:12;;;;;;;2.58;2.20;;;4.80;99.90;;;;;;7395562;19;20128;-51
2021/12/11 04:36:43;;;;;;;1.80;1.70;;;4.90;99.90;;;;;;7405367;19;20378;-51
2021/12/11 04:39:18;;;;;;;2.80;1.92;;;5.00;99.90;;;;;;7399630;19;20124;-50
2021/12/11 04:41:59;;;;;;;1.77;1.67;;;5.00;99.90;;;;;;7405946;19;20127;-51
2021/12/11 04:44:41;;;;;;;3.10;2.03;;;4.90;99.90;;;;;;7403036;19;20206;-51
2021/12/11 04:47:28;;;;;;;1.80;1.70;;;4.90;99.90;;;;;;7405023;19;20115;-51
2021/12/11 04:50:00;;;;;;;2.13;2.03;;;4.90;99.90;;;;;;7406813;19;20308;-51
2021/12/11 04:52:34;;;;;;;3.15;2.30;;;4.90;99.90;;;;;;7404962;19;20119;-51
2021/12/11 05:12:18;;;;;;;4.68;2.70;;;4.80;99.90;;;;;;7401041;19;20131;-53
2021/12/11 05:14:27;;;;;;;2.35;2.15;;;4.80;99.90;;;;;;7399874;19;20155;-51
2021/12/11 05:16:54;;;;;;;2.10;2.00;;;4.80;99.90;;;;;;7398163;19;20130;-52
2021/12/11 05:19:23;;;;;;;3.13;2.92;;;4.80;99.90;;;;;;7392626;19;20679;-51
2021/12/11 05:21:54;;;;;;;3.30;3.00;;;4.80;99.90;;;;;;7403538;19;20116;-51
2021/12/11 05:24:23;;;;;;;2.70;2.50;;;4.80;99.90;;;;;;7398852;19;21092;-50
2021/12/11 05:26:52;;;;;;;2.85;2.65;;;4.70;99.90;;;;;;7399472;19;20314;-53
2021/12/11 05:29:21;;;;;;;3.63;3.22;;;4.70;99.90;;;;;;7376734;19;20128;-51
2021/12/11 05:31:48;;;;;;;3.40;3.10;;;4.70;99.90;;;;;;7391384;19;20165;-50
2021/12/11 05:34:15;;;;;;;3.80;3.38;;;4.70;99.90;;;;;;7398846;19;20123;-51
2021/12/11 05:36:42;;;;;;;3.13;2.83;;;4.70;99.90;;;;;;7400230;19;20116;-51
2021/12/11 05:39:14;;;;;;;3.20;2.90;;;4.80;99.90;;;;;;7401777;19;20124;-51
2021/12/11 05:41:44;;;;;;;4.10;3.42;;;4.80;99.90;;;;;;7391990;19;20115;-51
2021/12/11 05:44:14;;;;;;;2.53;2.33;;;4.70;99.90;;;;;;7401496;19;20123;-50
2021/12/11 05:46:41;;;;;;;2.83;2.63;;;4.80;99.90;;;;;;7399529;19;20145;-50
2021/12/11 05:49:09;;;;;;;2.83;2.63;;;4.70;99.90;;;;;;7401962;19;20140;-50
2021/12/11 05:51:40;;;;;;;3.08;2.78;;;4.60;99.90;;;;;;7405331;19;20128;-50
2021/12/11 05:54:14;;;;;;;3.10;2.80;;;4.60;99.90;;;;;;7399875;19;20128;-50
2021/12/11 05:56:44;;;;;;;2.67;2.47;;;4.60;99.90;;;;;;7402157;19;20123;-50
2021/12/11 05:59:18;;;;;;;3.42;3.15;;;4.50;99.90;;;;;;7394317;19;20112;-50
2021/12/11 06:02:00;;;;;;;3.38;3.08;;;4.50;99.90;;;;;;7399005;19;20147;-50
2021/12/11 06:04:34;;;;;;;3.35;3.13;;;4.50;99.90;;;;;;7397730;19;20155;-50
2021/12/11 06:07:02;;;;;;;4.28;3.38;;;4.60;99.90;;;;;;7401167;19;20131;-50
2021/12/11 06:09:29;;;;;;;3.35;3.15;;;4.50;99.90;;;;;;7400831;19;20197;-50
2021/12/11 06:12:00;;;;;;;4.05;3.75;;;4.50;99.90;;;;;;7399737;19;20108;-50
2021/12/11 06:14:27;;;;;;;4.00;3.70;;;4.50;99.90;;;;;;7400119;19;20462;-53
2021/12/11 06:17:05;;;;;;;3.70;3.40;;;4.50;99.90;;;;;;7398622;19;20466;-50
2021/12/11 06:19:34;;;;;;;3.80;3.30;;;4.50;99.90;;;;;;7399029;19;20127;-50
2021/12/11 06:22:02;;;;;;;3.10;2.90;;;4.60;99.90;;;;;;7390931;19;20124;-50
2021/12/11 06:24:29;;;;;;;3.78;3.47;;;4.60;99.90;;;;;;7387079;19;20108;-50
2021/12/11 06:27:00;;;;;;;4.45;3.40;;;4.60;99.90;;;;;;7395903;19;20127;-50
2021/12/11 06:29:34;;;;;;;4.47;4.07;;;4.50;99.90;;;;;;7369285;19;20119;-50
2021/12/11 06:32:03;;;;;;;3.47;3.17;;;4.60;99.90;;;;;;7388752;19;20480;-50
2021/12/11 06:34:34;;;;;;;4.32;3.75;;;4.60;99.90;;;;;;7390686;19;20219;-50
2021/12/11 06:37:02;;;;;;;4.60;4.20;;;4.60;99.90;;;;;;7402363;19;20108;-50
2021/12/11 06:39:31;;;;;;;4.10;3.80;;;4.60;99.90;;;;;;7401293;19;20112;-50
2021/12/11 06:42:06;;;;;;;4.80;4.30;;;4.60;99.90;;;;;;7399482;19;20136;-51
2021/12/11 06:44:33;;;;;;;5.93;5.43;;;4.70;99.90;;;;;;7394495;19;21412;-50
2021/12/11 06:47:02;;;;;;;4.85;4.18;;;4.70;99.90;;;;;;7392375;19;20124;-52
2021/12/11 06:49:33;;;;;;;5.15;4.30;;;4.70;99.90;;;;;;7395934;19;20154;-50
2021/12/11 06:52:02;;;;;;;4.32;3.92;;;4.70;99.90;;;;;;7400085;19;20124;-50
2021/12/11 06:54:30;;;;;;;4.05;3.63;;;4.70;99.90;;;;;;7398656;19;20116;-50
2021/12/11 06:56:57;;;;;;;4.90;4.43;;;4.60;99.90;;;;;;7392185;19;20130;-50
2021/12/11 06:59:29;;;;;;;8.23;4.72;;;4.60;99.90;;;;;;7381782;19;20127;-50
2021/12/11 07:01:57;;;;;;;4.70;4.30;;;4.70;99.90;;;;;;7392850;19;20183;-50
2021/12/11 07:04:28;;;;;;;4.70;4.05;;;4.70;99.90;;;;;;7393003;19;20210;-50
2021/12/11 07:06:55;;;;;;;4.40;4.00;;;4.80;99.90;;;;;;7385711;19;20371;-50
2021/12/11 07:09:26;;;;;;;5.10;4.65;;;4.90;99.90;;;;;;7394577;19;20115;-50
2021/12/11 07:11:54;;;;;;;5.55;5.05;;;4.80;99.90;;;;;;7399240;19;20319;-50
2021/12/11 07:14:26;;;;;;;4.53;4.13;;;4.80;99.90;;;;;;7379643;19;20120;-51
2021/12/11 07:16:55;;;;;;;4.53;4.13;;;4.90;99.90;;;;;;7389367;19;20116;-51
2021/12/11 07:19:22;;;;;;;7.03;4.40;;;4.80;99.90;;;;;;7394566;19;20120;-51
2021/12/11 07:21:52;;;;;;;4.90;4.45;;;4.90;99.90;;;;;;7398286;19;20140;-50
2021/12/11 07:24:30;;;;;;;6.13;5.53;;;4.90;99.90;;;;;;7402817;19;20132;-51
2021/12/11 07:26:59;;;;;;;4.88;4.35;;;4.90;99.90;;;;;;7391017;19;20120;-50
2021/12/11 07:29:30;;;;;;;6.40;5.68;;;5.00;99.90;;;;;;7395186;19;20128;-50
2021/12/11 07:31:58;;;;;;;6.00;5.40;;;5.00;99.90;;;;;;7369517;19;21504;-50
2021/12/11 07:34:27;;;;;;;6.78;5.20;;;5.00;99.90;;;;;;7392217;19;20964;-51
2021/12/11 07:36:55;;;;;;;5.15;4.70;;;5.00;99.90;;;;;;7385413;19;20184;-51
2021/12/11 07:39:25;;;;;;;6.20;5.40;;;5.10;99.90;;;;;;7396604;19;20735;-51
2021/12/11 07:41:53;;;;;;;9.93;6.22;;;5.10;99.90;;;;;;7394700;19;20128;-51
2021/12/11 07:44:23;;;;;;;5.65;5.15;;;5.10;99.90;;;;;;7403096;19;20985;-52
2021/12/11 07:46:54;;;;;;;6.90;6.20;;;5.10;99.90;;;;;;7403813;19;20380;-54
2021/12/11 07:49:22;;;;;;;6.30;5.35;;;5.10;99.90;;;;;;7396701;19;20350;-51
2021/12/11 07:51:51;;;;;;;6.70;5.85;;;5.10;99.90;;;;;;7409668;19;20135;-51
2021/12/11 07:54:18;;;;;;;7.95;6.20;;;5.10;99.90;;;;;;7405040;19;20115;-50
2021/12/11 07:56:53;;;;;;;7.03;6.32;;;5.10;99.90;;;;;;7402317;19;20209;-51
2021/12/11 07:59:22;;;;;;;6.78;6.05;;;5.10;99.90;;;;;;7399729;19;20330;-50
2021/12/11 08:01:51;;;;;;;7.72;5.57;;;5.10;99.90;;;;;;7374839;19;20220;-51
2021/12/11 08:04:20;;;;;;;6.50;5.88;;;5.00;99.90;;;;;;7391707;19;20116;-54
2021/12/11 08:06:52;;;;;;;31.95;17.05;;;5.00;99.90;;;;;;7392755;19;20135;-51
2021/12/11 08:09:21;;;;;;;16.05;9.15;;;5.00;99.90;;;;;;7406132;19;20168;-52
2021/12/11 08:11:48;;;;;;;13.35;8.80;;;4.90;99.90;;;;;;7403155;19;20383;-52
2021/12/11 08:14:17;;;;;;;7.78;6.47;;;5.00;99.90;;;;;;7393330;19;20123;-51
2021/12/11 08:16:49;;;;;;;9.90;7.63;;;5.00;99.90;;;;;;7392184;19;20124;-51
2021/12/11 08:19:21;;;;;;;8.55;6.82;;;5.00;99.90;;;;;;7395742;19;20116;-50
2021/12/11 08:21:50;;;;;;;8.65;7.35;;;5.00;99.90;;;;;;7391472;19;20179;-47
2021/12/11 08:24:17;;;;;;;8.82;7.28;;;5.00;99.90;;;;;;7380906;19;20120;-48
2021/12/11 08:26:49;;;;;;;9.63;7.45;;;5.10;99.90;;;;;;7392860;19;20116;-48
2021/12/11 08:29:21;;;;;;;7.95;6.50;;;5.10;99.90;;;;;;7391120;19;20326;-48
2021/12/11 08:31:54;;;;;;;7.22;6.55;;;5.20;99.90;;;;;;7378659;19;20243;-48
2021/12/11 08:34:24;;;;;;;9.63;6.95;;;5.10;99.90;;;;;;7394788;19;20135;-48
2021/12/11 08:36:51;;;;;;;7.85;6.55;;;5.20;99.90;;;;;;7394711;19;20124;-48
2021/12/11 08:39:21;;;;;;;10.15;7.03;;;5.10;99.90;;;;;;7396842;19;20127;-48
2021/12/11 08:41:51;;;;;;;9.00;7.53;;;5.10;99.90;;;;;;7395468;19;20218;-48
2021/12/11 08:44:18;;;;;;;9.50;6.72;;;5.10;99.90;;;;;;7396392;19;20131;-48
2021/12/11 08:46:57;;;;;;;11.10;7.65;;;5.10;99.90;;;;;;7394686;19;20994;-48
2021/12/11 08:49:28;;;;;;;10.30;7.60;;;5.20;99.90;;;;;;7389343;19;20138;-47
2021/12/11 08:52:08;;;;;;;9.65;6.72;;;5.30;99.90;;;;;;7390773;19;20299;-47
2021/12/11 08:54:42;;;;;;;9.45;6.97;;;5.40;99.90;;;;;;7399126;19;20127;-47
2021/12/11 08:57:14;;;;;;;10.43;7.75;;;5.40;99.90;;;;;;7402130;19;20127;-47
2021/12/11 08:59:48;;;;;;;8.88;7.47;;;5.40;99.90;;;;;;7402186;19;20136;-47
2021/12/11 09:02:19;;;;;;;14.35;6.55;;;5.50;99.90;;;;;;7399260;19;20115;-48
2021/12/11 09:04:53;;;;;;;11.50;7.90;;;5.50;99.90;;;;;;7402085;19;20130;-48
2021/12/11 09:07:24;;;;;;;9.80;7.95;;;5.50;99.90;;;;;;7396021;19;20122;-47
2021/12/11 09:10:05;;;;;;;8.88;7.68;;;5.50;99.90;;;;;;7401946;19;20180;-48
2021/12/11 09:12:42;;;;;;;10.85;8.02;;;5.40;99.90;;;;;;7404540;19;20208;-47
2021/12/11 09:15:40;;;;;;;10.15;8.02;;;5.40;99.90;;;;;;7403884;19;20304;-48
2021/12/11 09:18:12;;;;;;;8.00;7.20;;;5.30;99.90;;;;;;7396657;19;20116;-48
2021/12/11 09:20:44;;;;;;;10.45;8.82;;;5.30;99.90;;;;;;7404875;19;20155;-48
2021/12/11 09:23:27;;;;;;;7.80;7.03;;;5.40;99.90;;;;;;7401217;19;20123;-47
2021/12/11 09:25:59;;;;;;;10.23;7.45;;;5.50;99.90;;;;;;7398399;19;20243;-48
2021/12/11 09:28:37;;;;;;;9.45;7.75;;;5.50;99.90;;;;;;7398459;19;20120;-47
2021/12/11 09:31:06;;;;;;;10.50;7.97;;;5.40;99.90;;;;;;7399140;19;20146;-48
2021/12/11 09:33:48;;;;;;;7.95;6.93;;;5.50;99.90;;;;;;7398539;19;20138;-47
2021/12/11 09:36:30;;;;;;;9.02;7.90;;;5.50;99.90;;;;;;7402414;19;20123;-47
2021/12/11 09:39:05;;;;;;;9.27;7.22;;;5.70;99.90;;;;;;7396350;19;20144;-48
2021/12/11 09:41:36;;;;;;;8.00;6.70;;;5.90;99.90;;;;;;7402073;19;20187;-47
2021/12/11 09:44:08;;;;;;;12.30;8.13;;;5.90;99.90;;;;;;7405429;19;20298;-47
2021/12/11 09:46:48;;;;;;;7.43;6.25;;;6.00;99.90;;;;;;7402518;19;20405;-47
2021/12/11 09:49:19;;;;;;;9.02;7.35;;;6.20;99.90;;;;;;7405818;19;20132;-47
2021/12/11 09:52:01;;;;;;;7.70;6.65;;;6.30;99.90;;;;;;7405456;19;20329;-48
2021/12/11 09:54:28;;;;;;;7.63;6.88;;;6.30;99.90;;;;;;7404878;19;20127;-48
2021/12/11 09:57:09;;;;;;;6.70;5.72;;;6.40;99.90;;;;;;7405763;19;20279;-48
2021/12/11 09:59:38;;;;;;;9.45;6.43;;;6.40;99.90;;;;;;7405122;19;20120;-47
2021/12/11 10:02:09;;;;;;;8.50;6.18;;;6.40;99.90;;;;;;7399543;19;20119;-48
2021/12/11 10:04:52;;;;;;;6.00;5.40;;;6.40;99.90;;;;;;7405117;19;20120;-48
2021/12/11 10:07:35;;;;;;;5.80;5.30;;;6.50;99.90;;;;;;7412638;19;20120;-47
2021/12/11 10:10:24;;;;;;;6.55;5.45;;;6.60;99.90;;;;;;7411633;19;20183;-48
2021/12/11 10:12:57;;;;;;;6.15;5.55;;;6.50;99.90;;;;;;7410456;19;20127;-48
2021/12/11 10:15:38;;;;;;;5.88;5.00;;;6.50;99.90;;;;;;7412565;19;20127;-48
2021/12/11 10:18:16;;;;;;;6.25;5.38;;;6.40;99.90;;;;;;7406457;19;20131;-47
2021/12/11 10:21:03;;;;;;;7.25;5.90;;;6.40;99.90;;;;;;7409192;19;20179;-48
2021/12/11 10:23:40;;;;;;;6.63;5.05;;;6.30;99.90;;;;;;7407610;19;20131;-47
2021/12/11 10:26:14;;;;;;;5.07;4.57;;;6.30;99.90;;;;;;7410076;19;20123;-48
2021/12/11 10:28:51;;;;;;;6.35;4.90;;;6.40;99.90;;;;;;7407345;19;20446;-47
2021/12/11 10:31:25;;;;;;;5.10;4.60;;;6.40;99.90;;;;;;7400730;19;20147;-48
2021/12/11 10:33:56;;;;;;;6.80;4.80;;;6.60;99.90;;;;;;7408511;19;20138;-48
2021/12/11 10:36:30;;;;;;;6.40;4.93;;;6.60;99.90;;;;;;7410844;19;20116;-48
2021/12/11 10:39:05;;;;;;;7.10;5.55;;;6.70;99.90;;;;;;7407385;19;20285;-48
2021/12/11 10:41:32;;;;;;;6.75;4.80;;;6.80;99.90;;;;;;7407887;19;20119;-50
2021/12/11 10:44:08;;;;;;;6.13;4.60;;;6.80;99.90;;;;;;7410241;19;20124;-50
2021/12/11 10:46:45;;;;;;;5.72;4.78;;;6.90;99.90;;;;;;7409256;19;20230;-50
2021/12/11 10:49:16;;;;;;;5.95;4.47;;;6.90;99.90;;;;;;7404538;19;20169;-50
2021/12/11 10:51:56;;;;;;;6.00;4.68;;;6.90;99.90;;;;;;7410704;19;20123;-51
2021/12/11 10:54:25;;;;;;;6.05;4.45;;;7.00;99.90;;;;;;7407008;19;20127;-50
2021/12/11 10:56:56;;;;;;;4.13;3.70;;;6.90;99.90;;;;;;7407256;19;20124;-50
2021/12/11 10:59:34;;;;;;;4.78;4.28;;;6.80;99.90;;;;;;7407549;19;20127;-50
2021/12/11 11:02:11;;;;;;;5.00;4.50;;;6.70;99.90;;;;;;7409840;19;20132;-50
2021/12/11 11:04:42;;;;;;;5.10;4.38;;;6.60;99.90;;;;;;7405623;19;20128;-51
2021/12/11 11:07:09;;;;;;;5.95;4.70;;;6.60;99.90;;;;;;7409819;19;20459;-50
2021/12/11 11:09:36;;;;;;;4.80;4.00;;;6.60;99.90;;;;;;7404388;19;20207;-48
2021/12/11 11:12:10;;;;;;;6.25;4.25;;;6.50;99.90;;;;;;7406680;19;20134;-48
2021/12/11 11:14:39;;;;;;;4.68;4.20;;;6.50;99.90;;;;;;7407612;19;20127;-47
2021/12/11 11:17:09;;;;;;;5.35;4.22;;;6.40;99.90;;;;;;7401610;19;20116;-47
2021/12/11 11:19:42;;;;;;;5.95;4.47;;;6.30;99.90;;;;;;7409276;19;20409;-48
2021/12/11 11:22:15;;;;;;;6.78;4.95;;;6.30;99.90;;;;;;7409579;19;20595;-48
2021/12/11 11:24:48;;;;;;;6.32;4.63;;;6.40;99.90;;;;;;7408672;19;20122;-48
2021/12/11 11:27:17;;;;;;;4.80;4.30;;;6.50;99.90;;;;;;7405446;19;20123;-48
2021/12/11 11:29:46;;;;;;;5.50;4.80;;;6.50;99.90;;;;;;7408173;19;20120;-48
2021/12/11 11:32:17;;;;;;;4.75;4.35;;;6.50;99.90;;;;;;7398478;19;20157;-47
2021/12/11 11:34:49;;;;;;;6.10;4.82;;;6.50;99.90;;;;;;7405330;19;20128;-48
2021/12/11 11:37:22;;;;;;;6.15;4.88;;;6.40;99.90;;;;;;7407152;19;20331;-48
2021/12/11 11:39:52;;;;;;;7.30;5.03;;;6.40;99.90;;;;;;7408528;19;20119;-48
2021/12/11 11:42:24;;;;;;;4.95;4.50;;;6.40;99.90;;;;;;7408909;19;20179;-48
2021/12/11 11:44:58;;;;;;;5.60;4.80;;;6.40;99.90;;;;;;7409626;19;20330;-47
2021/12/11 11:47:25;;;;;;;6.20;5.10;;;6.30;99.90;;;;;;7411521;19;20307;-47
2021/12/11 11:49:58;;;;;;;4.45;4.05;;;6.40;99.90;;;;;;7407087;19;20281;-47
2021/12/11 11:52:27;;;;;;;8.30;5.28;;;6.50;99.90;;;;;;7407803;19;20179;-48
2021/12/11 11:54:58;;;;;;;6.32;5.70;;;6.50;99.90;;;;;;7407917;19;20123;-48
2021/12/11 11:57:35;;;;;;;5.00;4.50;;;6.40;99.90;;;;;;7406373;19;20179;-48
2021/12/11 12:00:10;;;;;;;4.47;4.05;;;6.40;99.90;;;;;;7408187;19;20288;-48
2021/12/11 12:02:41;;;;;;;5.97;4.53;;;6.50;99.90;;;;;;7407996;19;20855;-48
2021/12/11 12:05:10;;;;;;;5.93;4.72;;;6.50;99.90;;;;;;7406950;19;20303;-48
2021/12/11 12:07:40;;;;;;;6.10;4.63;;;6.50;99.90;;;;;;7408425;19;21040;-48
2021/12/11 12:10:18;;;;;;;5.78;5.28;;;6.50;99.90;;;;;;7409750;19;20210;-50
2021/12/11 12:12:48;;;;;;;6.30;5.05;;;6.50;99.90;;;;;;7404230;19;20119;-52
2021/12/11 12:15:29;;;;;;;4.90;4.20;;;6.40;99.90;;;;;;7407675;19;20119;-50
2021/12/11 12:18:00;;;;;;;8.60;4.90;;;6.40;99.90;;;;;;7405027;19;20124;-50
2021/12/11 12:20:29;;;;;;;5.68;4.70;;;6.40;99.90;;;;;;7408048;19;20127;-50
2021/12/11 12:23:01;;;;;;;5.25;4.47;;;6.40;99.90;;;;;;7402759;19;20124;-50
2021/12/11 12:25:32;;;;;;;5.72;5.00;;;6.40;99.90;;;;;;7399805;19;20123;-50
2021/12/11 12:27:59;;;;;;;6.22;5.00;;;6.40;99.90;;;;;;7404311;19;20474;-50
2021/12/11 12:30:39;;;;;;;7.82;5.40;;;6.40;99.90;;;;;;7398828;19;20168;-50
2021/12/11 12:33:09;;;;;;;6.63;5.25;;;6.50;99.90;;;;;;7406039;19;20222;-50
2021/12/11 12:35:36;;;;;;;6.57;5.38;;;6.60;99.90;;;;;;7404477;19;20131;-50
2021/12/11 12:38:08;;;;;;;4.93;4.43;;;6.60;99.90;;;;;;7406547;19;20510;-50
2021/12/11 12:40:48;;;;;;;4.60;3.90;;;6.60;99.90;;;;;;7407591;19;20372;-50
2021/12/11 12:43:53;;;;;;;4.88;4.10;;;6.60;99.90;;;;;;7407562;19;20128;-50
2021/12/11 12:46:13;;;;;;;5.13;4.10;;;6.50;99.90;;;;;;7408831;19;20134;-50
2021/12/11 12:48:43;;;;;;;6.88;4.55;;;6.50;99.90;;;;;;7407048;19;20243;-50
2021/12/11 12:51:12;;;;;;;7.32;4.10;;;6.50;99.90;;;;;;7403158;19;20409;-48
2021/12/11 12:53:44;;;;;;;8.32;5.40;;;6.50;99.90;;;;;;7405874;19;20131;-48
2021/12/11 12:56:10;;;;;;;5.90;4.47;;;6.60;99.90;;;;;;7406508;19;20127;-48
2021/12/11 12:58:45;;;;;;;5.72;4.68;;;6.70;99.90;;;;;;7405489;19;20123;-48
2021/12/11 13:01:19;;;;;;;5.75;4.07;;;6.70;99.90;;;;;;7402510;19;20191;-48
2021/12/11 13:03:49;;;;;;;7.20;4.88;;;6.70;99.90;;;;;;7407968;19;20145;-48
2021/12/11 13:06:23;;;;;;;5.70;4.30;;;6.80;99.90;;;;;;7404945;19;20128;-48
2021/12/11 13:08:56;;;;;;;8.68;4.30;;;6.90;99.90;;;;;;7400266;19;20120;-48
2021/12/11 13:11:34;;;;;;;5.35;4.10;;;7.00;99.90;;;;;;7402462;19;20123;-48
2021/12/11 13:14:05;;;;;;;5.40;3.42;;;7.00;99.90;;;;;;7406513;19;20124;-48
2021/12/11 13:16:38;;;;;;;6.10;4.20;;;7.00;99.90;;;;;;7375322;19;20207;-48
2021/12/11 13:19:21;;;;;;;4.80;4.30;;;7.00;99.90;;;;;;7403813;19;20248;-48
2021/12/11 13:21:59;;;;;;;5.45;4.43;;;7.00;99.90;;;;;;7404798;19;20138;-48
2021/12/11 13:24:28;;;;;;;5.57;4.38;;;7.00;99.90;;;;;;7404402;19;20140;-48
2021/12/11 13:27:02;;;;;;;6.28;4.45;;;7.00;99.90;;;;;;7403467;19;20124;-48
2021/12/11 13:29:33;;;;;;;3.55;3.25;;;7.00;99.90;;;;;;7403322;19;20133;-48
2021/12/11 13:32:17;;;;;;;3.60;3.30;;;6.90;99.90;;;;;;7395846;19;20163;-47
2021/12/11 13:34:47;;;;;;;6.35;5.13;;;6.80;99.90;;;;;;7401010;19;20127;-48
2021/12/11 13:37:16;;;;;;;6.13;4.85;;;6.80;99.90;;;;;;7406086;19;20939;-47
2021/12/11 13:39:45;;;;;;;6.53;4.05;;;6.80;99.90;;;;;;7407753;19;20124;-48
2021/12/11 13:42:19;;;;;;;5.30;4.20;;;6.70;99.90;;;;;;7407028;19;20131;-47
2021/12/11 13:44:54;;;;;;;5.63;4.55;;;6.70;99.90;;;;;;7401756;19;20357;-50